Time;durP1;ratioP1;P1;durP2;ratioP2;P2;SDS_P1;SDS_P2;PMS_P1;PMS_P2;Temp;Humidity;BMP_temperature;BMP_pressure;BME280_temperature;BME280_humidity;BME280_pressure;Samples;Min_cycle;Max_cycle;Signal;HPM_P1;HPM_P2
2022/08/07 00:00:52;;;;;;;;;;;12.30;99.90;;;;;;5094195;28;20006;-67
2022/08/07 00:03:17;;;;;;;;;;;12.20;99.90;;;;;;5094157;28;19909;-67
2022/08/07 00:05:43;;;;;;;;;;;12.30;99.90;;;;;;5094132;28;19908;-67
2022/08/07 00:08:08;;;;;;;;;;;12.10;99.90;;;;;;5094085;28;20389;-67
2022/08/07 00:10:34;;;;;;;;;;;12.10;99.90;;;;;;5094069;28;19930;-67
2022/08/07 00:13:01;;;;;;;;;;;12.10;99.90;;;;;;5093931;28;19908;-67
2022/08/07 00:15:29;;;;;;;;;;;12.10;99.90;;;;;;5075453;28;19999;-67
2022/08/07 00:17:55;;;;;;;;;;;12.00;99.90;;;;;;5093904;28;19951;-67
2022/08/07 00:20:20;;;;;;;;;;;12.00;99.90;;;;;;5075622;28;20304;-67
2022/08/07 00:22:46;;;;;;;;;;;11.90;99.90;;;;;;5093628;28;19912;-67
2022/08/07 00:25:11;;;;;;;;;;;11.90;99.90;;;;;;5093821;28;19915;-67
2022/08/07 00:27:37;;;;;;;;;;;11.90;99.90;;;;;;5093846;28;20396;-67
2022/08/07 00:30:03;;;;;;;;;;;11.90;99.90;;;;;;5093753;28;19987;-67
2022/08/07 00:32:29;;;;;;;;;;;11.90;99.90;;;;;;5093513;28;19908;-67
2022/08/07 00:34:54;;;;;;;;;;;11.80;99.90;;;;;;5075531;28;19916;-67
2022/08/07 00:37:19;;;;;;;;;;;11.80;99.90;;;;;;5093710;28;19921;-67
2022/08/07 00:39:45;;;;;;;;;;;11.80;99.90;;;;;;5093526;28;19951;-67
2022/08/07 00:42:10;;;;;;;;;;;11.80;99.90;;;;;;5093751;28;20011;-67
2022/08/07 00:44:36;;;;;;;;;;;11.80;99.90;;;;;;5093679;28;19958;-68
2022/08/07 00:47:03;;;;;;;;;;;11.80;99.90;;;;;;5093444;28;20396;-67
2022/08/07 00:49:28;;;;;;;;;;;11.80;99.90;;;;;;5093711;28;19916;-67
2022/08/07 00:51:54;;;;;;;;;;;11.80;99.90;;;;;;5093689;28;20292;-67
2022/08/07 00:54:20;;;;;;;;;;;11.70;99.90;;;;;;5093385;28;19916;-68
2022/08/07 00:56:45;;;;;;;;;;;11.70;99.90;;;;;;5093538;28;20367;-67
2022/08/07 00:59:11;;;;;;;;;;;11.70;99.90;;;;;;5093347;28;20010;-67
2022/08/07 01:01:37;;;;;;;;;;;11.70;99.90;;;;;;5093576;28;19908;-67
2022/08/07 01:04:04;;;;;;;;;;;11.60;99.90;;;;;;5093302;28;19908;-67
2022/08/07 01:06:30;;;;;;;;;;;11.60;99.90;;;;;;5093578;28;20366;-67
2022/08/07 01:08:56;;;;;;;;;;;11.60;99.90;;;;;;5093330;28;19949;-67
2022/08/07 01:11:22;;;;;;;;;;;11.60;99.90;;;;;;5093511;28;20007;-67
2022/08/07 01:13:47;;;;;;;;;;;11.50;99.90;;;;;;5093479;28;19951;-67
2022/08/07 01:16:13;;;;;;;;;;;11.50;99.90;;;;;;5092896;28;20016;-67
2022/08/07 01:18:39;;;;;;;;;;;11.50;99.90;;;;;;5093444;28;19908;-67
2022/08/07 01:21:24;;;;;;;;;;;11.40;99.90;;;;;;5075181;28;20297;-67
2022/08/07 01:23:50;;;;;;;;;;;11.50;99.90;;;;;;5094241;28;19908;-67
2022/08/07 01:26:17;;;;;;;;;;;11.40;99.90;;;;;;5097045;28;20332;-67
2022/08/07 01:28:43;;;;;;;;;;;11.40;99.90;;;;;;5096757;28;19953;-66
2022/08/07 01:31:09;;;;;;;;;;;11.50;99.90;;;;;;5097039;28;19908;-67
2022/08/07 01:33:35;;;;;;;;;;;11.40;99.90;;;;;;5096679;28;20420;-67
2022/08/07 01:36:01;;;;;;;;;;;11.40;99.90;;;;;;5096796;28;19951;-67
2022/08/07 01:38:27;;;;;;;;;;;11.40;99.90;;;;;;5096843;28;20329;-67
2022/08/07 01:40:54;;;;;;;;;;;11.30;99.90;;;;;;5096486;28;20401;-67
2022/08/07 01:43:19;;;;;;;;;;;11.30;99.90;;;;;;5096737;28;19915;-67
2022/08/07 01:45:45;;;;;;;;;;;11.20;99.90;;;;;;5078375;28;19908;-67
2022/08/07 01:48:10;;;;;;;;;;;11.20;99.90;;;;;;5096396;28;19915;-67
2022/08/07 01:50:37;;;;;;;;;;;11.20;99.90;;;;;;5096282;28;19915;-67
2022/08/07 01:53:04;;;;;;;;;;;11.20;99.90;;;;;;5096494;28;20376;-67
2022/08/07 01:55:34;;;;;;;;;;;11.20;99.90;;;;;;5096276;28;19942;-67
2022/08/07 01:58:01;;;;;;;;;;;11.20;99.90;;;;;;5096122;28;19912;-67
2022/08/07 02:00:28;;;;;;;;;;;11.10;99.90;;;;;;5096429;28;19996;-67
2022/08/07 02:02:58;;;;;;;;;;;11.10;99.90;;;;;;5077878;28;19914;-67
2022/08/07 02:05:30;;;;;;;;;;;11.00;99.90;;;;;;5096028;28;19908;-67
2022/08/07 02:07:56;;;;;;;;;;;11.00;99.90;;;;;;5096272;28;19908;-67
2022/08/07 02:10:24;;;;;;;;;;;11.00;99.90;;;;;;5095919;28;19908;-67
2022/08/07 02:12:50;;;;;;;;;;;11.00;99.90;;;;;;5077772;28;19958;-67
2022/08/07 02:15:19;;;;;;;;;;;10.90;99.90;;;;;;5078075;28;19909;-67
2022/08/07 02:17:47;;;;;;;;;;;10.90;99.90;;;;;;5095512;28;19920;-67
2022/08/07 02:20:13;;;;;;;;;;;10.90;99.90;;;;;;5095726;28;19999;-67
2022/08/07 02:22:39;;;;;;;;;;;10.90;99.90;;;;;;5095689;28;19909;-67
2022/08/07 02:25:06;;;;;;;;;;;10.90;99.90;;;;;;5095931;28;19908;-67
2022/08/07 02:27:32;;;;;;;;;;;10.90;99.90;;;;;;5095840;28;19919;-67
2022/08/07 02:29:59;;;;;;;;;;;10.90;99.90;;;;;;5095659;28;19908;-67
2022/08/07 02:32:25;;;;;;;;;;;10.90;99.90;;;;;;5095495;28;19908;-67
2022/08/07 02:34:51;;;;;;;;;;;10.80;99.90;;;;;;5095756;28;20053;-67
2022/08/07 02:37:17;;;;;;;;;;;10.80;99.90;;;;;;5095626;28;19912;-67
2022/08/07 02:39:45;;;;;;;;;;;10.80;99.90;;;;;;5095634;28;19908;-68
2022/08/07 02:42:10;;;;;;;;;;;10.70;99.90;;;;;;5095587;28;19908;-67
2022/08/07 02:44:38;;;;;;;;;;;10.80;99.90;;;;;;5095170;28;20386;-67
2022/08/07 02:47:05;;;;;;;;;;;10.80;99.90;;;;;;5095194;28;19995;-67
2022/08/07 02:49:31;;;;;;;;;;;10.80;99.90;;;;;;5095181;28;20367;-67
2022/08/07 02:51:57;;;;;;;;;;;10.90;99.90;;;;;;5095423;28;19908;-67
2022/08/07 02:54:26;;;;;;;;;;;10.90;99.90;;;;;;5095364;28;20003;-67
2022/08/07 02:56:52;;;;;;;;;;;10.90;99.90;;;;;;5094989;28;20389;-67
2022/08/07 02:59:18;;;;;;;;;;;10.90;99.90;;;;;;5095288;28;20311;-67
2022/08/07 03:01:45;;;;;;;;;;;10.80;99.90;;;;;;5095260;28;20282;-67
2022/08/07 03:04:11;;;;;;;;;;;10.70;99.90;;;;;;5095207;28;19957;-67
2022/08/07 03:06:37;;;;;;;;;;;10.60;99.90;;;;;;5095181;28;20371;-67
2022/08/07 03:09:03;;;;;;;;;;;10.50;99.90;;;;;;5095115;28;20366;-66
2022/08/07 03:11:30;;;;;;;;;;;10.50;99.90;;;;;;5094791;28;19908;-67
2022/08/07 03:13:55;;;;;;;;;;;10.50;99.90;;;;;;5094994;28;19908;-67
2022/08/07 03:16:22;;;;;;;;;;;10.40;99.90;;;;;;5094392;28;19930;-67
2022/08/07 03:18:47;;;;;;;;;;;10.40;99.90;;;;;;5094645;28;19909;-67
2022/08/07 03:21:13;;;;;;;;;;;10.40;99.90;;;;;;5094561;28;19908;-67
2022/08/07 03:23:40;;;;;;;;;;;10.40;99.90;;;;;;5094805;28;20316;-67
2022/08/07 03:26:08;;;;;;;;;;;10.40;99.90;;;;;;5094782;28;19999;-67
2022/08/07 03:28:34;;;;;;;;;;;10.30;99.90;;;;;;5094710;28;19908;-67
2022/08/07 03:31:32;;;;;;;;;;;10.30;99.90;;;;;;5094697;28;19908;-67
2022/08/07 03:33:47;;;;;;;;;;;10.00;99.90;;;;;;5094183;28;19939;-67
2022/08/07 03:36:13;;;;;;;;;;;10.30;99.90;;;;;;5094477;28;19908;-67
2022/08/07 03:38:40;;;;;;;;;;;10.30;99.90;;;;;;5094511;28;20018;-67
2022/08/07 03:41:06;;;;;;;;;;;10.30;99.90;;;;;;5094498;28;20378;-67
2022/08/07 03:43:32;;;;;;;;;;;10.30;99.90;;;;;;5076116;28;20061;-67
2022/08/07 03:45:58;;;;;;;;;;;10.20;99.90;;;;;;5094393;28;20370;-67
2022/08/07 03:48:24;;;;;;;;;;;10.20;99.90;;;;;;5094084;28;20315;-67
2022/08/07 03:50:51;;;;;;;;;;;10.10;99.90;;;;;;5094364;28;20378;-67
2022/08/07 03:53:16;;;;;;;;;;;10.10;99.90;;;;;;5094284;28;19908;-67
2022/08/07 03:55:42;;;;;;;;;;;10.10;99.90;;;;;;5094241;28;20385;-67
2022/08/07 03:58:08;;;;;;;;;;;10.10;99.90;;;;;;5094172;28;19920;-67
2022/08/07 04:00:34;;;;;;;;;;;10.00;99.90;;;;;;5094204;28;19908;-67
2022/08/07 04:03:00;;;;;;;;;;;10.10;99.90;;;;;;5094029;28;19912;-67
2022/08/07 04:05:25;;;;;;;;;;;10.10;99.90;;;;;;5094144;28;20014;-67
2022/08/07 04:07:51;;;;;;;;;;;10.00;99.90;;;;;;5093867;28;19912;-67
2022/08/07 04:10:17;;;;;;;;;;;10.10;99.90;;;;;;5094072;28;19908;-67
2022/08/07 04:12:42;;;;;;;;;;;10.10;99.90;;;;;;5093808;28;19916;-67
2022/08/07 04:15:09;;;;;;;;;;;10.10;99.90;;;;;;5075810;28;19916;-67
2022/08/07 04:17:34;;;;;;;;;;;10.10;99.90;;;;;;5093453;28;19943;-67
2022/08/07 04:19:59;;;;;;;;;;;10.10;99.90;;;;;;5093716;28;20375;-67
2022/08/07 04:22:25;;;;;;;;;;;10.20;99.90;;;;;;5093943;28;19915;-67
2022/08/07 04:24:51;;;;;;;;;;;10.10;99.90;;;;;;5093940;28;20391;-67
2022/08/07 04:27:17;;;;;;;;;;;10.10;99.90;;;;;;5093936;28;19908;-67
2022/08/07 04:29:43;;;;;;;;;;;10.20;99.90;;;;;;5093873;28;19961;-67
2022/08/07 04:32:09;;;;;;;;;;;10.20;99.90;;;;;;5093861;28;19908;-67
2022/08/07 04:34:35;;;;;;;;;;;10.20;99.90;;;;;;5075886;28;19915;-67
2022/08/07 04:37:01;;;;;;;;;;;10.20;99.90;;;;;;5075344;28;20010;-67
2022/08/07 04:39:28;;;;;;;;;;;10.30;99.90;;;;;;5075508;28;19908;-67
2022/08/07 04:41:53;;;;;;;;;;;10.30;99.90;;;;;;5093786;28;20381;-67
2022/08/07 04:44:19;;;;;;;;;;;10.30;99.90;;;;;;5093490;28;19908;-67
2022/08/07 04:46:50;;;;;;;;;;;10.40;99.90;;;;;;5093489;28;19908;-67
2022/08/07 04:49:35;;;;;;;;;;;10.60;99.90;;;;;;5093509;28;19950;-67
2022/08/07 04:52:07;;;;;;;;;;;10.50;99.90;;;;;;5093375;28;19914;-67
2022/08/07 04:54:44;;;;;;;;;;;10.80;99.90;;;;;;5093390;28;19908;-67
2022/08/07 04:57:23;;;;;;;;;;;10.90;99.90;;;;;;5093618;28;19912;-67
2022/08/07 04:59:54;;;;;;;;;;;11.20;99.90;;;;;;5095829;28;19915;-67
2022/08/07 05:02:39;;;;;;;;;;;11.50;99.90;;;;;;5097556;28;19943;-67
2022/08/07 05:05:17;;;;;;;;;;;11.70;99.90;;;;;;5097092;28;19914;-67
2022/08/07 05:07:51;;;;;;;;;;;11.80;99.90;;;;;;5097449;28;19915;-68
2022/08/07 05:10:29;;;;;;;;;;;12.00;99.90;;;;;;5097163;28;19977;-67
2022/08/07 05:12:57;;;;;;;;;;;12.00;99.90;;;;;;5097333;28;20328;-67
2022/08/07 05:15:25;;;;;;;;;;;12.20;99.90;;;;;;5097319;28;20408;-67
2022/08/07 05:17:54;;;;;;;;;;;12.30;99.90;;;;;;5097143;28;19920;-67
2022/08/07 05:20:32;;;;;;;;;;;12.40;99.90;;;;;;5097200;28;20018;-67
2022/08/07 05:23:00;;;;;;;;;;;12.50;99.90;;;;;;5096865;28;19908;-67
2022/08/07 05:25:26;;;;;;;;;;;12.60;99.90;;;;;;5097096;28;20438;-67
2022/08/07 05:27:51;;;;;;;;;;;12.60;99.90;;;;;;5078625;28;19912;-68
2022/08/07 05:30:17;;;;;;;;;;;12.70;99.90;;;;;;5096803;28;19960;-68
2022/08/07 05:32:46;;;;;;;;;;;12.70;99.90;;;;;;5096956;28;19908;-68
2022/08/07 05:35:12;;;;;;;;;;;12.70;99.90;;;;;;5078449;28;19912;-68
2022/08/07 05:37:39;;;;;;;;;;;12.90;99.90;;;;;;5096556;28;19923;-67
2022/08/07 05:40:04;;;;;;;;;;;13.00;99.90;;;;;;5096798;28;19908;-67
2022/08/07 05:42:30;;;;;;;;;;;13.30;99.90;;;;;;5096785;28;20054;-67
2022/08/07 05:44:56;;;;;;;;;;;13.50;99.90;;;;;;5096484;28;19915;-67
2022/08/07 05:47:22;;;;;;;;;;;13.80;99.90;;;;;;5096426;28;20003;-68
2022/08/07 05:49:48;;;;;;;;;;;14.90;99.90;;;;;;5096653;28;20274;-68
2022/08/07 05:52:13;;;;;;;;;;;16.80;99.90;;;;;;5096554;28;19908;-68
2022/08/07 05:54:39;;;;;;;;;;;20.90;99.90;;;;;;5096533;28;20308;-66
2022/08/07 05:57:05;;;;;;;;;;;21.70;99.90;;;;;;5096248;28;19912;-66
2022/08/07 05:59:31;;;;;;;;;;;22.20;99.90;;;;;;5096176;28;19916;-66
2022/08/07 06:01:57;;;;;;;;;;;23.30;99.50;;;;;;5096389;28;19909;-67
2022/08/07 06:04:22;;;;;;;;;;;24.30;95.00;;;;;;5096376;28;19908;-66
2022/08/07 06:06:48;;;;;;;;;;;25.10;92.60;;;;;;5096017;28;20325;-66
2022/08/07 06:09:15;;;;;;;;;;;25.30;91.00;;;;;;5096023;28;19909;-66
2022/08/07 06:11:41;;;;;;;;;;;25.50;90.30;;;;;;5096202;28;20397;-66
2022/08/07 06:14:07;;;;;;;;;;;25.60;88.00;;;;;;5095952;28;19909;-66
2022/08/07 06:16:34;;;;;;;;;;;25.10;86.80;;;;;;5095711;28;19927;-66
2022/08/07 06:19:00;;;;;;;;;;;25.40;86.90;;;;;;5096098;28;19908;-67
2022/08/07 06:21:26;;;;;;;;;;;24.70;87.80;;;;;;5095744;28;19912;-67
2022/08/07 06:23:52;;;;;;;;;;;25.30;85.80;;;;;;5095994;28;19965;-66
2022/08/07 06:26:17;;;;;;;;;;;24.90;86.90;;;;;;5095663;28;19938;-67
2022/08/07 06:28:48;;;;;;;;;;;25.10;86.60;;;;;;5095868;28;19930;-66
2022/08/07 06:31:14;;;;;;;;;;;25.60;85.20;;;;;;5095851;28;20362;-67
2022/08/07 06:33:40;;;;;;;;;;;26.20;82.10;;;;;;5095621;28;19908;-67
2022/08/07 06:36:05;;;;;;;;;;;25.80;83.00;;;;;;5077292;28;20347;-67
2022/08/07 06:38:31;;;;;;;;;;;26.10;82.20;;;;;;5095393;28;20277;-66
2022/08/07 06:40:57;;;;;;;;;;;27.20;79.00;;;;;;5095372;28;19951;-66
2022/08/07 06:43:24;;;;;;;;;;;27.60;75.50;;;;;;5095346;28;19923;-67
2022/08/07 06:45:49;;;;;;;;;;;27.80;76.00;;;;;;5095560;28;19908;-66
2022/08/07 06:48:15;;;;;;;;;;;27.30;75.10;;;;;;5095269;28;20366;-66
2022/08/07 06:50:42;;;;;;;;;;;27.30;72.80;;;;;;5095420;28;19915;-67
2022/08/07 06:53:08;;;;;;;;;;;27.80;73.50;;;;;;5095435;28;19915;-66
2022/08/07 06:55:34;;;;;;;;;;;28.50;70.00;;;;;;5095347;28;20370;-66
2022/08/07 06:58:02;;;;;;;;;;;27.40;71.80;;;;;;5095123;28;19912;-66
2022/08/07 07:00:30;;;;;;;;;;;27.10;73.90;;;;;;5095261;28;19999;-66
2022/08/07 07:02:56;;;;;;;;;;;27.90;71.20;;;;;;5095188;28;19915;-67
2022/08/07 07:05:22;;;;;;;;;;;27.40;71.90;;;;;;5094913;28;19912;-67
2022/08/07 07:07:47;;;;;;;;;;;27.20;73.10;;;;;;5094880;28;19908;-67
2022/08/07 07:10:13;;;;;;;;;;;27.30;70.70;;;;;;5095112;28;19999;-67
2022/08/07 07:12:47;;;;;;;;;;;27.50;70.30;;;;;;5094796;28;19908;-66
2022/08/07 07:15:17;;;;;;;;;;;27.70;70.40;;;;;;5094972;28;19935;-67
2022/08/07 07:17:46;;;;;;;;;;;28.30;68.80;;;;;;5094408;28;20009;-67
2022/08/07 07:20:17;;;;;;;;;;;28.00;69.00;;;;;;5094629;28;19912;-67
2022/08/07 07:22:43;;;;;;;;;;;28.40;68.20;;;;;;5094172;28;20290;-66
2022/08/07 07:25:09;;;;;;;;;;;27.90;67.00;;;;;;5094836;28;19912;-67
2022/08/07 07:27:38;;;;;;;;;;;27.90;69.80;;;;;;5094549;28;19958;-67
2022/08/07 07:30:04;;;;;;;;;;;28.10;69.80;;;;;;5094439;28;20108;-66
2022/08/07 07:32:32;;;;;;;;;;;29.20;66.70;;;;;;5094766;28;20382;-67
2022/08/07 07:34:59;;;;;;;;;;;28.30;66.20;;;;;;5094379;28;19946;-66
2022/08/07 07:37:25;;;;;;;;;;;28.20;66.30;;;;;;5094473;28;19919;-66
2022/08/07 07:39:54;;;;;;;;;;;28.90;66.60;;;;;;5094380;28;19969;-67
2022/08/07 07:42:20;;;;;;;;;;;29.10;63.00;;;;;;5094539;28;19913;-66
2022/08/07 07:44:47;;;;;;;;;;;29.50;61.40;;;;;;5094173;28;20381;-67
2022/08/07 07:47:14;;;;;;;;;;;29.60;61.00;;;;;;5094187;28;19908;-67
2022/08/07 07:49:39;;;;;;;;;;;29.40;61.70;;;;;;5094355;28;19963;-66
2022/08/07 07:52:06;;;;;;;;;;;28.60;60.80;;;;;;5094124;28;19908;-66
2022/08/07 07:54:32;;;;;;;;;;;29.80;61.10;;;;;;5094255;28;20286;-66
2022/08/07 07:56:57;;;;;;;;;;;30.60;58.80;;;;;;5094147;28;20324;-67
2022/08/07 07:59:24;;;;;;;;;;;31.10;56.80;;;;;;5093950;28;19908;-66
2022/08/07 08:01:50;;;;;;;;;;;30.20;57.30;;;;;;5094157;28;20290;-66
2022/08/07 08:04:16;;;;;;;;;;;30.40;57.80;;;;;;5094132;28;19908;-66
2022/08/07 08:06:42;;;;;;;;;;;29.90;57.60;;;;;;5094135;28;20382;-66
2022/08/07 08:09:09;;;;;;;;;;;28.60;58.70;;;;;;5076118;28;19916;-66
2022/08/07 08:11:35;;;;;;;;;;;29.50;58.20;;;;;;5075897;28;19912;-67
2022/08/07 08:14:00;;;;;;;;;;;29.30;57.20;;;;;;5094073;28;19908;-66
2022/08/07 08:16:30;;;;;;;;;;;30.20;56.80;;;;;;5093612;28;19920;-67
2022/08/07 08:18:57;;;;;;;;;;;29.40;57.20;;;;;;5093906;28;19957;-67
2022/08/07 08:27:13;;;;;;;;;;;31.80;55.20;;;;;;5093468;28;19908;-67
2022/08/07 08:29:40;;;;;;;;;;;31.60;54.90;;;;;;5093909;28;19912;-67
2022/08/07 08:32:08;;;;;;;;;;;30.90;55.10;;;;;;5075686;28;19957;-66
2022/08/07 08:34:34;;;;;;;;;;;31.30;54.50;;;;;;5097698;28;19915;-67
2022/08/07 08:37:01;;;;;;;;;;;31.40;54.30;;;;;;5097782;28;19961;-67
2022/08/07 08:39:27;;;;;;;;;;;30.80;53.70;;;;;;5098024;28;20420;-66
2022/08/07 08:41:59;;;;;;;;;;;29.30;56.00;;;;;;5097975;28;19908;-67
2022/08/07 08:44:29;;;;;;;;;;;29.40;56.50;;;;;;5097863;28;20008;-66
2022/08/07 08:47:14;;;;;;;;;;;29.20;56.00;;;;;;5097618;28;19922;-67
2022/08/07 08:49:49;;;;;;;;;;;29.90;55.40;;;;;;5097507;28;19931;-67
2022/08/07 08:52:18;;;;;;;;;;;30.70;54.20;;;;;;5097782;28;20315;-67
2022/08/07 08:54:52;;;;;;;;;;;29.90;54.80;;;;;;5097698;28;20354;-67
2022/08/07 08:57:25;;;;;;;;;;;31.20;53.60;;;;;;5097350;28;19920;-67
2022/08/07 09:00:00;;;;;;;;;;;30.10;54.00;;;;;;5097378;28;19908;-66
2022/08/07 09:02:45;;;;;;;;;;;29.20;54.10;;;;;;5097533;28;20448;-67
2022/08/07 09:05:15;;;;;;;;;;;29.60;54.40;;;;;;5097136;28;19977;-67
2022/08/07 09:07:45;;;;;;;;;;;30.10;53.50;;;;;;5079094;28;20384;-67
2022/08/07 09:10:15;;;;;;;;;;;30.30;50.50;;;;;;5097416;28;19908;-66
2022/08/07 09:12:51;;;;;;;;;;;31.10;50.60;;;;;;5097094;28;19919;-66
2022/08/07 09:15:36;;;;;;;;;;;31.20;50.20;;;;;;5097013;28;19957;-66
2022/08/07 09:18:22;;;;;;;;;;;31.20;49.40;;;;;;5096927;28;20019;-67
2022/08/07 09:21:07;;;;;;;;;;;30.70;50.10;;;;;;5096827;28;19931;-67
2022/08/07 09:23:43;;;;;;;;;;;31.50;48.00;;;;;;5096699;28;20281;-67
2022/08/07 09:26:15;;;;;;;;;;;31.50;49.40;;;;;;5097112;28;20263;-67
2022/08/07 09:28:43;;;;;;;;;;;31.20;48.50;;;;;;5096801;28;19908;-67
2022/08/07 09:31:14;;;;;;;;;;;31.10;46.80;;;;;;5097030;28;19908;-67
2022/08/07 09:33:51;;;;;;;;;;;31.60;47.40;;;;;;5096961;28;19908;-67
2022/08/07 09:36:21;;;;;;;;;;;31.80;48.30;;;;;;5096787;28;20375;-67
2022/08/07 09:38:57;;;;;;;;;;;31.60;46.40;;;;;;5096854;28;20006;-67
2022/08/07 09:41:29;;;;;;;;;;;30.40;47.80;;;;;;5096825;28;19912;-67
2022/08/07 09:44:14;;;;;;;;;;;31.00;48.50;;;;;;5078204;28;20263;-67
2022/08/07 09:46:56;;;;;;;;;;;30.80;47.80;;;;;;5096264;28;20282;-67
2022/08/07 09:49:42;;;;;;;;;;;30.90;48.70;;;;;;5096670;28;19915;-67
2022/08/07 09:52:28;;;;;;;;;;;30.20;48.20;;;;;;5096320;28;19915;-67
2022/08/07 09:54:56;;;;;;;;;;;29.90;48.90;;;;;;5096146;28;19908;-67
2022/08/07 09:57:37;;;;;;;;;;;29.30;48.90;;;;;;5096184;28;19916;-67
2022/08/07 10:00:10;;;;;;;;;;;30.30;48.00;;;;;;5096468;28;20366;-67
2022/08/07 10:02:49;;;;;;;;;;;31.00;45.80;;;;;;5096393;28;19909;-67
2022/08/07 10:05:34;;;;;;;;;;;30.10;46.70;;;;;;5096089;28;19996;-67
2022/08/07 10:08:13;;;;;;;;;;;30.60;46.00;;;;;;5095942;28;19915;-67
2022/08/07 10:10:42;;;;;;;;;;;30.20;45.80;;;;;;5096229;28;19908;-67
2022/08/07 10:13:16;;;;;;;;;;;30.50;47.00;;;;;;5096210;28;19930;-67
2022/08/07 10:15:53;;;;;;;;;;;30.50;45.60;;;;;;5095752;28;19912;-68
2022/08/07 10:18:26;;;;;;;;;;;30.70;45.90;;;;;;5096056;28;19912;-67
2022/08/07 10:21:12;;;;;;;;;;;30.80;45.30;;;;;;5096095;28;20374;-67
2022/08/07 10:23:44;;;;;;;;;;;30.30;45.90;;;;;;5095709;28;20358;-67
2022/08/07 10:26:29;;;;;;;;;;;29.30;46.80;;;;;;5095784;28;19953;-67
2022/08/07 10:29:09;;;;;;;;;;;29.20;46.90;;;;;;5095623;28;19909;-68
2022/08/07 10:31:50;;;;;;;;;;;29.30;48.60;;;;;;5095892;28;20290;-67
2022/08/07 10:34:24;;;;;;;;;;;30.30;47.10;;;;;;5095805;28;20020;-67
2022/08/07 10:37:09;;;;;;;;;;;30.00;46.40;;;;;;5095399;28;19962;-67
2022/08/07 10:39:38;;;;;;;;;;;29.70;47.10;;;;;;5095516;28;20362;-67
2022/08/07 10:42:09;;;;;;;;;;;29.90;48.20;;;;;;5095450;28;19908;-67
2022/08/07 10:44:55;;;;;;;;;;;30.40;47.50;;;;;;5095334;28;19908;-67
2022/08/07 10:47:28;;;;;;;;;;;30.70;45.90;;;;;;5095137;28;20362;-67
2022/08/07 10:50:14;;;;;;;;;;;30.00;46.50;;;;;;5095508;28;19999;-67
2022/08/07 10:52:59;;;;;;;;;;;29.70;46.80;;;;;;5095087;28;19908;-67
2022/08/07 10:55:28;;;;;;;;;;;28.80;47.70;;;;;;5094881;28;20366;-67
2022/08/07 10:58:13;;;;;;;;;;;28.40;48.80;;;;;;5094079;28;19912;-67
2022/08/07 11:00:56;;;;;;;;;;;28.20;48.60;;;;;;5094847;28;19908;-66
2022/08/07 11:03:31;;;;;;;;;;;28.30;50.50;;;;;;5094944;28;19912;-66
2022/08/07 11:06:01;;;;;;;;;;;27.90;49.80;;;;;;5095161;28;19959;-66
2022/08/07 11:08:32;;;;;;;;;;;27.70;50.00;;;;;;5094835;28;19912;-67
2022/08/07 11:11:16;;;;;;;;;;;27.40;51.60;;;;;;5076600;28;19908;-69
2022/08/07 11:16:27;;;;;;;;;;;27.60;52.40;;;;;;5091143;27;19919;-69
2022/08/07 11:19:12;;;;;;;;;;;27.60;51.50;;;;;;5091145;28;19923;-69
2022/08/07 11:21:43;;;;;;;;;;;28.10;50.90;;;;;;5091220;28;19909;-68
2022/08/07 11:26:55;;;;;;;;;;;27.90;51.40;;;;;;5091214;27;19912;-68
2022/08/07 11:29:27;;;;;;;;;;;27.60;51.60;;;;;;5091376;28;20374;-68
2022/08/07 11:32:00;;;;;;;;;;;27.70;52.40;;;;;;5091091;28;20313;-68
2022/08/07 11:34:45;;;;;;;;;;;27.30;51.70;;;;;;5091300;28;19908;-68
2022/08/07 11:37:25;;;;;;;;;;;27.60;51.80;;;;;;5091048;28;19916;-68
2022/08/07 11:40:10;;;;;;;;;;;27.60;52.30;;;;;;5091188;28;20359;-68
2022/08/07 11:42:50;;;;;;;;;;;27.80;52.00;;;;;;5090897;28;20363;-68
2022/08/07 11:45:35;;;;;;;;;;;27.70;50.90;;;;;;5090998;28;19912;-68
2022/08/07 11:48:20;;;;;;;;;;;27.60;52.00;;;;;;5090857;28;19909;-68
2022/08/07 11:51:06;;;;;;;;;;;27.70;52.40;;;;;;5090848;28;19908;-68
2022/08/07 11:53:51;;;;;;;;;;;27.20;51.30;;;;;;5090762;28;19909;-68
2022/08/07 11:56:35;;;;;;;;;;;26.50;52.40;;;;;;5090648;28;19908;-68
2022/08/07 11:59:08;;;;;;;;;;;27.00;51.80;;;;;;5090835;28;19996;-68
2022/08/07 12:01:44;;;;;;;;;;;27.30;51.40;;;;;;5090779;28;19930;-68
2022/08/07 12:04:25;;;;;;;;;;;27.20;51.80;;;;;;5090482;28;19908;-68
2022/08/07 12:06:55;;;;;;;;;;;26.70;51.20;;;;;;5090690;28;20410;-68
2022/08/07 12:09:24;;;;;;;;;;;26.70;53.10;;;;;;5090669;28;19908;-68
2022/08/07 12:12:10;;;;;;;;;;;26.90;52.50;;;;;;5090601;28;19931;-68
2022/08/07 12:14:41;;;;;;;;;;;27.10;51.70;;;;;;5090508;28;19909;-68
2022/08/07 12:17:09;;;;;;;;;;;27.00;51.60;;;;;;5090239;28;20292;-68
2022/08/07 12:19:54;;;;;;;;;;;26.80;52.20;;;;;;5123143;28;20393;-68
2022/08/07 12:22:24;;;;;;;;;;;26.30;53.40;;;;;;5090284;28;20351;-68
2022/08/07 12:27:59;;;;;;;;;;;26.90;52.00;;;;;;5110201;28;20392;-68
2022/08/07 12:30:26;;;;;;;;;;;26.90;50.60;;;;;;5110275;28;19908;-68
2022/08/07 12:32:59;;;;;;;;;;;26.80;50.30;;;;;;5110615;28;20562;-68
2022/08/07 12:35:25;;;;;;;;;;;26.60;51.40;;;;;;5110321;28;19909;-68
2022/08/07 12:37:51;;;;;;;;;;;26.70;52.20;;;;;;5098888;28;19909;-68
2022/08/07 12:40:21;;;;;;;;;;;26.80;52.50;;;;;;5096569;28;20458;-68
2022/08/07 12:42:50;;;;;;;;;;;27.10;51.30;;;;;;5096765;28;19961;-68
2022/08/07 12:45:18;;;;;;;;;;;27.20;51.60;;;;;;5096454;28;20392;-68
2022/08/07 12:47:48;;;;;;;;;;;27.30;52.30;;;;;;5096440;28;19908;-69
2022/08/07 12:50:18;;;;;;;;;;;27.40;52.00;;;;;;5096699;28;20385;-68
2022/08/07 12:52:50;;;;;;;;;;;26.80;52.00;;;;;;5096650;28;19908;-68
2022/08/07 12:55:20;;;;;;;;;;;27.20;52.70;;;;;;5096525;28;20380;-68
2022/08/07 12:57:46;;;;;;;;;;;27.30;53.30;;;;;;5078200;28;19916;-68
2022/08/07 13:00:12;;;;;;;;;;;27.10;53.10;;;;;;5096444;28;20049;-68
2022/08/07 13:02:47;;;;;;;;;;;26.80;52.80;;;;;;5096405;28;20389;-68
2022/08/07 13:05:22;;;;;;;;;;;27.10;52.70;;;;;;5095998;28;19916;-68
2022/08/07 13:08:07;;;;;;;;;;;27.10;52.80;;;;;;5096382;28;19908;-69
2022/08/07 13:10:53;;;;;;;;;;;27.10;52.80;;;;;;5095814;28;19916;-68
2022/08/07 13:13:38;;;;;;;;;;;27.10;53.10;;;;;;5095802;28;20353;-69
2022/08/07 13:16:14;;;;;;;;;;;27.30;53.90;;;;;;5095706;28;20286;-69
2022/08/07 13:19:00;;;;;;;;;;;27.50;53.50;;;;;;5096124;28;19915;-68
2022/08/07 13:21:35;;;;;;;;;;;26.90;52.60;;;;;;5095722;28;19915;-69
2022/08/07 13:24:07;;;;;;;;;;;27.20;53.50;;;;;;5095997;28;19914;-68
2022/08/07 13:26:39;;;;;;;;;;;27.20;53.60;;;;;;5095369;28;20405;-68
2022/08/07 13:29:23;;;;;;;;;;;27.00;53.20;;;;;;5095921;28;20362;-69
2022/08/07 13:31:51;;;;;;;;;;;27.00;53.60;;;;;;5095877;28;19915;-69
2022/08/07 13:34:22;;;;;;;;;;;27.20;53.80;;;;;;5095787;28;19915;-68
2022/08/07 13:36:51;;;;;;;;;;;27.00;53.90;;;;;;5095738;28;19912;-68
2022/08/07 13:39:25;;;;;;;;;;;27.00;53.70;;;;;;5095469;28;19915;-68
2022/08/07 13:41:52;;;;;;;;;;;26.90;53.00;;;;;;5095630;28;19908;-68
2022/08/07 13:44:21;;;;;;;;;;;27.10;53.40;;;;;;5095317;28;19908;-68
2022/08/07 13:46:53;;;;;;;;;;;27.20;53.50;;;;;;5095486;28;19912;-68
2022/08/07 13:49:19;;;;;;;;;;;27.20;53.80;;;;;;5094220;28;19908;-68
2022/08/07 13:51:45;;;;;;;;;;;27.50;52.90;;;;;;5095429;28;20029;-68
2022/08/07 13:54:12;;;;;;;;;;;27.40;51.70;;;;;;5077001;28;19961;-68
2022/08/07 13:56:39;;;;;;;;;;;27.40;53.00;;;;;;5095376;28;20275;-68
2022/08/07 13:59:07;;;;;;;;;;;27.40;52.80;;;;;;5095073;28;19912;-68
2022/08/07 14:01:35;;;;;;;;;;;26.70;52.90;;;;;;5095001;28;19920;-68
2022/08/07 14:04:09;;;;;;;;;;;26.90;53.90;;;;;;5095229;28;19908;-68
2022/08/07 14:06:36;;;;;;;;;;;26.80;53.50;;;;;;5094923;28;19912;-68
2022/08/07 14:09:03;;;;;;;;;;;26.90;53.70;;;;;;5094881;28;19912;-68
2022/08/07 14:11:29;;;;;;;;;;;26.40;54.10;;;;;;5076763;28;19908;-68
2022/08/07 14:14:02;;;;;;;;;;;26.30;53.40;;;;;;5094996;28;19960;-68
2022/08/07 14:16:32;;;;;;;;;;;26.70;53.90;;;;;;5095017;28;20267;-68
2022/08/07 14:18:59;;;;;;;;;;;26.40;53.00;;;;;;5094694;28;19977;-68
2022/08/07 14:21:28;;;;;;;;;;;26.80;54.40;;;;;;5094917;28;19908;-68
2022/08/07 14:23:57;;;;;;;;;;;26.70;54.60;;;;;;5094587;28;19908;-68
2022/08/07 14:26:25;;;;;;;;;;;26.70;53.70;;;;;;5094267;28;20027;-68
2022/08/07 14:28:52;;;;;;;;;;;26.30;53.40;;;;;;5094770;28;19908;-68
2022/08/07 14:31:21;;;;;;;;;;;26.10;53.80;;;;;;5094463;28;20013;-68
2022/08/07 14:33:47;;;;;;;;;;;26.20;53.80;;;;;;5076209;28;19908;-68
2022/08/07 14:36:13;;;;;;;;;;;26.20;54.00;;;;;;5094376;28;19912;-69
2022/08/07 14:38:41;;;;;;;;;;;26.50;53.10;;;;;;5094577;28;20374;-69
2022/08/07 14:41:09;;;;;;;;;;;26.70;53.40;;;;;;5094365;28;19908;-68
2022/08/07 14:43:37;;;;;;;;;;;26.40;52.60;;;;;;5094525;28;19944;-68
2022/08/07 14:46:04;;;;;;;;;;;26.30;53.80;;;;;;5094093;28;19920;-68